Cordova, SC (29039)

5:06 AM EST on February 13, 2016 (GMT -0500)
APRSWXNET | | Change Station
CLOSE
Current Station
Personal Weather Station
Location: Cordova, SC
Elevation: 206 ft
Nearby Weather Stations

Elev 206 ft 33.49 °N, 80.93 °W | Updated 20 minutes ago

Clear
Clear
29 °F
Feels Like 29 °F
N
0
Wind Variable Wind from SSW
Gusts 0.0 mph

Today
High -- | Low -- °F
--% Chance of Precip.
Yesterday
High -- | Low -- °F
Precip. -- in
Pressure 30.14 in
Visibility 8.0 miles
Clouds Clear
Windchill 29 °F
Dew Point 23 °F
Humidity 77%
Rainfall in
Snow Depth Not available.
7:10 AM 6:06 PM
Waxing Crescent, 29% visible
METAR KOGB 130953Z AUTO 00000KT 8SM CLR 00/M02 A3014 RMK AO2 SLP205 T00001017
Pressure 30.14 in
Visibility 8.0 miles
Clouds Clear
Windchill 29 °F
Dew Point 23 °F
Humidity 77%
Rainfall in
Snow Depth Not available.
7:10 AM 6:06 PM
Waxing Crescent, 29% visible
METAR KOGB 130953Z AUTO 00000KT 8SM CLR 00/M02 A3014 RMK AO2 SLP205 T00001017

10-Day Weather Forecast

Almanac

Astronomy

Feb. 13, 2016 Rise Set
Actual Time
Civil Twilight
Nautical Twilight
Astronomical Twilight
Moon
Length of Visible Light
Length of Day
Tomorrow will be .
, % of the Moon is Illuminated

Today's Extremes

State Highs State Lows

Community

WunderPhotos

Upload Photos

1,892,536 photos uploaded!

WunderBlog® & News

Nearby

Air Quality

  Air Quality AQ Index Pollutant
Not available.

Snow Depth

Station Depth Elevation

Earthquake Activity

City Distance Mag. Time & Date
Minimum magnitude displayed is 2.5.

Coastal Water Temperatures

Place Temperature

Stations

Nearby Weather Stations

Station Location Temp. Windchill Dew Point Humidity Wind Precip. Elev Updated Type
                   

Watches & Warnings

There are currently no watches in effect.